createdAt,value
2023-02-02T00:02:27.545Z,80.68
2023-02-02T00:04:59.037Z,80.62
2023-02-02T00:07:28.641Z,80.94
2023-02-02T00:09:58.084Z,81.12
2023-02-02T00:12:28.225Z,81.87
2023-02-02T00:14:57.803Z,82.00
2023-02-02T00:17:27.517Z,81.12
2023-02-02T00:19:58.301Z,81.73
2023-02-02T00:22:28.166Z,81.08
2023-02-02T00:24:57.558Z,81.88
2023-02-02T00:27:27.272Z,81.10
2023-02-02T00:29:57.553Z,80.11
2023-02-02T00:32:27.126Z,81.65
2023-02-02T00:34:56.462Z,81.87
2023-02-02T00:37:27.549Z,81.75
2023-02-02T00:39:56.854Z,80.67
2023-02-02T00:42:26.479Z,80.41
2023-02-02T00:45:13.046Z,81.18
2023-02-02T00:47:42.773Z,81.26
2023-02-02T00:50:14.536Z,80.74
2023-02-02T00:52:45.762Z,80.39
2023-02-02T00:55:16.303Z,80.87
2023-02-02T00:57:46.193Z,79.79
2023-02-02T01:00:17.580Z,79.88
2023-02-02T01:02:47.698Z,80.12
2023-02-02T01:05:17.338Z,79.28
2023-02-02T01:07:48.905Z,79.62
2023-02-02T01:10:19.290Z,79.14
2023-02-02T01:12:48.833Z,79.21
2023-02-02T01:15:18.447Z,79.05
2023-02-02T01:17:48.253Z,78.53
2023-02-02T01:20:20.348Z,78.30
2023-02-02T01:22:51.887Z,79.04
2023-02-02T01:25:21.355Z,79.76
2023-02-02T01:27:51.687Z,79.72
2023-02-02T01:30:21.127Z,80.19
2023-02-02T01:32:51.535Z,79.33
2023-02-02T01:35:21.608Z,80.64
2023-02-02T01:37:53.132Z,80.58
2023-02-02T01:40:22.498Z,81.39
2023-02-02T01:42:52.196Z,81.28
2023-02-02T01:45:29.394Z,79.82
2023-02-02T01:48:01.623Z,81.18
2023-02-02T01:50:34.306Z,81.03
2023-02-02T01:53:08.480Z,81.31
2023-02-02T01:55:40.862Z,81.05
2023-02-02T01:58:13.133Z,80.71
2023-02-02T02:00:47.001Z,79.77
2023-02-02T02:03:20.153Z,81.36
2023-02-02T02:05:53.923Z,81.27
2023-02-02T02:08:28.661Z,81.59
2023-02-02T02:10:59.090Z,81.11
2023-02-02T02:13:44.099Z,81.79
2023-02-02T02:16:22.249Z,82.34
2023-02-02T02:19:05.655Z,81.68
2023-02-02T02:22:04.159Z,82.05
2023-02-02T02:25:29.842Z,82.04
2023-02-02T02:28:45.758Z,81.77
2023-02-02T02:31:41.024Z,82.18
2023-02-02T02:34:19.248Z,81.38
2023-02-02T02:36:52.875Z,81.31
2023-02-02T02:39:29.152Z,81.60
2023-02-02T02:42:06.474Z,81.71
2023-02-02T02:44:37.743Z,82.16
2023-02-02T02:47:09.242Z,81.01
2023-02-02T02:49:46.509Z,81.47
2023-02-02T02:52:17.005Z,81.24
2023-02-02T02:54:49.924Z,80.78
2023-02-02T02:57:43.052Z,79.81
2023-02-02T03:00:31.721Z,81.26
2023-02-02T03:03:11.144Z,81.39
2023-02-02T03:05:51.860Z,81.15
2023-02-02T03:08:26.232Z,82.61
2023-02-02T03:10:57.558Z,82.08
2023-02-02T03:13:28.528Z,80.71
2023-02-02T03:15:57.948Z,81.66
2023-02-02T03:18:30.628Z,81.45
2023-02-02T03:21:01.453Z,81.68
2023-02-02T03:23:30.935Z,80.84
2023-02-02T03:26:00.176Z,81.65
2023-02-02T03:28:30.718Z,81.39
2023-02-02T03:36:05.344Z,80.60
2023-02-02T03:38:35.154Z,81.65
2023-02-02T03:41:04.453Z,81.01
2023-02-02T03:43:33.987Z,81.03
2023-02-02T03:46:05.650Z,82.02
2023-02-02T03:48:37.924Z,80.88
2023-02-02T03:51:13.021Z,79.46
2023-02-02T03:53:44.519Z,78.88
2023-02-02T03:56:13.765Z,80.32
2023-02-02T03:58:43.221Z,81.25
2023-02-02T04:01:14.394Z,81.36
2023-02-02T04:03:46.315Z,81.62
2023-02-02T04:06:16.962Z,79.71
2023-02-02T04:08:46.402Z,79.35
2023-02-02T04:11:15.671Z,79.76
2023-02-02T04:13:45.435Z,79.30
2023-02-02T04:16:14.602Z,79.39
2023-02-02T04:18:44.096Z,81.01
2023-02-02T04:21:13.445Z,81.42
2023-02-02T04:23:44.311Z,82.11
2023-02-02T04:26:13.610Z,81.51
2023-02-02T04:28:43.025Z,81.50
2023-02-02T04:31:12.254Z,81.52
2023-02-02T04:33:41.719Z,81.52
2023-02-02T04:36:11.521Z,80.94
2023-02-02T04:38:40.907Z,80.88
2023-02-02T04:41:14.848Z,80.86
2023-02-02T04:43:44.280Z,81.21
2023-02-02T04:46:14.089Z,80.67
2023-02-02T04:48:43.921Z,81.05
2023-02-02T04:51:15.612Z,80.53
2023-02-02T04:53:44.992Z,80.43
2023-02-02T04:56:17.804Z,80.14
2023-02-02T04:58:47.891Z,80.30
2023-02-02T05:01:19.438Z,80.00
2023-02-02T05:03:49.509Z,80.53
2023-02-02T05:06:19.532Z,81.30
2023-02-02T05:08:49.465Z,80.87
2023-02-02T05:11:21.960Z,80.97
2023-02-02T05:13:53.261Z,81.15
2023-02-02T05:16:23.937Z,80.75
2023-02-02T05:18:55.179Z,80.67
2023-02-02T05:21:25.224Z,81.41
2023-02-02T05:23:54.714Z,80.99
2023-02-02T05:26:27.917Z,81.31
2023-02-02T05:28:58.647Z,81.59
2023-02-02T05:31:28.218Z,81.23
2023-02-02T05:33:57.679Z,81.89
2023-02-02T05:36:26.906Z,81.52
2023-02-02T05:38:56.404Z,81.36
2023-02-02T05:41:26.837Z,80.47
2023-02-02T05:43:56.414Z,79.67
2023-02-02T05:46:25.525Z,80.60
2023-02-02T05:48:54.886Z,80.33
2023-02-02T05:51:28.182Z,79.99
2023-02-02T05:53:59.987Z,80.24
2023-02-02T05:56:31.504Z,80.44
2023-02-02T05:59:01.417Z,81.32
2023-02-02T06:01:30.610Z,80.98
2023-02-02T06:04:00.238Z,81.50
2023-02-02T06:06:29.490Z,81.45
2023-02-02T06:08:59.033Z,81.28
2023-02-02T06:11:28.268Z,80.98
2023-02-02T06:13:59.072Z,81.40
2023-02-02T06:16:28.212Z,80.94
2023-02-02T06:18:58.200Z,80.85
2023-02-02T06:21:31.135Z,81.63
2023-02-02T06:24:02.283Z,82.88
2023-02-02T06:26:31.635Z,81.78
2023-02-02T06:29:02.986Z,82.30
2023-02-02T06:31:32.328Z,82.56
2023-02-02T06:34:02.506Z,82.14
2023-02-02T06:36:31.776Z,82.22
2023-02-02T06:39:02.362Z,82.16
2023-02-02T06:41:31.639Z,82.04
2023-02-02T06:44:02.768Z,81.28
2023-02-02T06:46:31.966Z,81.81
2023-02-02T06:49:01.784Z,82.02
2023-02-02T06:51:30.932Z,81.14
2023-02-02T06:54:00.252Z,81.01
2023-02-02T06:56:29.374Z,81.20
2023-02-02T06:58:58.883Z,80.00
2023-02-02T07:01:29.430Z,80.35
2023-02-02T07:03:58.979Z,80.66
2023-02-02T07:06:29.849Z,80.56
2023-02-02T07:09:02.797Z,80.91
2023-02-02T07:11:35.632Z,80.68
2023-02-02T07:14:11.162Z,80.35
2023-02-02T07:16:41.638Z,80.54
2023-02-02T07:19:11.339Z,80.79
2023-02-02T07:21:40.407Z,80.41
2023-02-02T07:24:10.041Z,80.30
2023-02-02T07:26:39.240Z,80.57
2023-02-02T07:29:08.808Z,80.28
2023-02-02T07:31:38.096Z,80.72
2023-02-02T07:34:09.540Z,80.54
2023-02-02T07:36:38.887Z,80.43
2023-02-02T07:39:08.447Z,80.82
2023-02-02T07:41:38.628Z,81.06
2023-02-02T07:44:17.610Z,81.05
2023-02-02T07:46:48.412Z,81.07
2023-02-02T07:49:20.680Z,81.38
2023-02-02T07:51:49.780Z,81.77
2023-02-02T07:54:19.244Z,81.66
2023-02-02T07:56:48.499Z,81.61
2023-02-02T07:59:17.968Z,81.06
2023-02-02T08:01:47.061Z,81.03
2023-02-02T08:04:17.335Z,80.54
2023-02-02T08:06:48.380Z,79.92
2023-02-02T08:09:17.786Z,79.52
2023-02-02T08:11:46.851Z,79.19
2023-02-02T08:14:16.249Z,79.21
2023-02-02T08:16:45.478Z,78.17
2023-02-02T08:19:15.075Z,77.99
2023-02-02T08:21:44.260Z,77.87
2023-02-02T08:24:15.111Z,77.86
2023-02-02T08:26:44.445Z,77.36
2023-02-02T08:29:17.306Z,76.49
2023-02-02T08:31:47.199Z,77.88
2023-02-02T08:34:16.636Z,76.85
2023-02-02T08:36:45.797Z,75.77
2023-02-02T08:39:16.565Z,75.61
2023-02-02T08:41:45.731Z,76.08
2023-02-02T08:44:17.212Z,75.78
2023-02-02T08:46:47.715Z,75.22
2023-02-02T08:49:17.254Z,75.65
2023-02-02T08:51:46.521Z,75.68
2023-02-02T08:54:17.304Z,76.01
2023-02-02T08:56:46.460Z,76.56
2023-02-02T08:59:15.883Z,77.21
2023-02-02T09:01:44.928Z,76.80
2023-02-02T09:04:17.057Z,76.28
2023-02-02T09:06:46.463Z,75.14
2023-02-02T09:09:18.135Z,75.64
2023-02-02T09:11:48.098Z,75.05
2023-02-02T09:14:17.734Z,74.11
2023-02-02T09:16:46.849Z,74.15
2023-02-02T09:19:16.298Z,74.19
2023-02-02T09:21:45.408Z,74.45
2023-02-02T09:24:18.091Z,74.68
2023-02-02T09:26:47.523Z,74.76
2023-02-02T09:29:18.893Z,73.89
2023-02-02T09:31:48.180Z,73.50
2023-02-02T09:34:17.946Z,74.38
2023-02-02T09:36:47.552Z,73.69
2023-02-02T09:39:19.580Z,73.02
2023-02-02T09:42:29.397Z,73.17
2023-02-02T09:45:03.428Z,73.22
2023-02-02T09:47:52.336Z,72.83
2023-02-02T09:50:39.664Z,70.84
2023-02-02T09:53:29.794Z,70.61
2023-02-02T09:56:05.643Z,71.28
2023-02-02T09:58:41.006Z,74.13
2023-02-02T10:01:13.684Z,75.01
2023-02-02T10:03:46.637Z,77.69
2023-02-02T10:06:26.776Z,78.51
2023-02-02T10:09:00.567Z,78.04
2023-02-02T10:11:37.335Z,76.63
2023-02-02T10:14:14.333Z,75.34
2023-02-02T10:16:44.192Z,74.77
2023-02-02T10:19:15.724Z,75.04
2023-02-02T10:21:53.072Z,74.69
2023-02-02T10:24:25.455Z,74.97
2023-02-02T10:26:59.360Z,73.02
2023-02-02T10:29:48.613Z,72.46
2023-02-02T10:32:25.516Z,72.01
2023-02-02T10:35:18.712Z,72.41
2023-02-02T10:37:56.785Z,72.39
2023-02-02T10:40:42.364Z,73.61
2023-02-02T10:43:46.965Z,74.82
2023-02-02T10:46:21.424Z,74.47
2023-02-02T10:48:52.955Z,74.16
2023-02-02T10:51:27.683Z,73.66
2023-02-02T10:54:01.161Z,72.21
2023-02-02T10:56:38.009Z,70.39
2023-02-02T10:59:15.780Z,68.22
2023-02-02T11:01:49.015Z,62.85
2023-02-02T11:04:42.947Z,52.45
2023-02-02T11:07:20.400Z,46.24
2023-02-02T11:09:51.158Z,43.87
2023-02-02T11:12:26.958Z,39.27
2023-02-02T11:15:05.261Z,38.46
2023-02-02T11:17:39.541Z,39.51
2023-02-02T11:20:25.777Z,37.62
2023-02-02T11:23:03.512Z,37.59
2023-02-02T11:25:36.086Z,36.24
2023-02-02T11:28:18.929Z,34.74
2023-02-02T11:30:52.715Z,33.67
2023-02-02T11:33:28.809Z,32.54
2023-02-02T11:36:01.829Z,33.28
2023-02-02T11:38:31.396Z,32.54
2023-02-02T11:41:05.026Z,34.83
2023-02-02T11:43:41.331Z,38.38
2023-02-02T11:46:21.198Z,38.53
2023-02-02T11:48:55.663Z,42.69
2023-02-02T11:51:27.618Z,49.56
2023-02-02T11:54:06.320Z,54.18
2023-02-02T11:56:38.062Z,59.48
2023-02-02T11:59:07.479Z,61.22
2023-02-02T12:01:40.640Z,62.87
2023-02-02T12:04:26.217Z,64.80
2023-02-02T12:06:57.115Z,65.88
2023-02-02T12:09:27.836Z,64.05
2023-02-02T12:12:04.072Z,50.91
2023-02-02T12:14:41.839Z,44.57
2023-02-02T12:17:29.079Z,40.80
2023-02-02T12:20:23.112Z,48.33
2023-02-02T12:23:09.235Z,54.32
2023-02-02T12:26:02.483Z,62.04
2023-02-02T12:28:50.540Z,68.60
2023-02-02T12:31:29.096Z,70.91
2023-02-02T12:34:11.933Z,72.73
2023-02-02T12:36:51.679Z,72.88
2023-02-02T12:39:34.325Z,74.49
2023-02-02T12:42:25.181Z,75.62
2023-02-02T12:45:09.514Z,75.70
2023-02-02T12:47:47.227Z,76.29
2023-02-02T12:50:29.903Z,76.76
2023-02-02T12:53:18.143Z,76.93
2023-02-02T12:55:52.709Z,77.19
2023-02-02T12:58:33.646Z,77.95
2023-02-02T13:01:26.485Z,77.71
2023-02-02T13:04:14.977Z,77.51
2023-02-02T13:07:13.199Z,77.33
2023-02-02T13:09:49.980Z,77.03
2023-02-02T13:12:23.677Z,77.12
2023-02-02T13:14:57.697Z,77.47
2023-02-02T13:17:31.335Z,76.95
2023-02-02T13:20:04.682Z,76.81
2023-02-02T13:22:40.328Z,75.71
2023-02-02T13:25:19.285Z,74.33
2023-02-02T13:27:50.121Z,74.54
2023-02-02T13:30:29.894Z,75.36
2023-02-02T13:33:03.535Z,74.61
2023-02-02T13:35:38.747Z,75.52
2023-02-02T13:38:21.186Z,74.26
2023-02-02T13:40:52.377Z,74.21
2023-02-02T13:43:39.806Z,75.31
2023-02-02T13:46:21.847Z,76.33
2023-02-02T13:49:00.525Z,75.41
2023-02-02T13:52:03.428Z,71.74
2023-02-02T13:55:17.212Z,71.77
2023-02-02T13:58:14.743Z,72.40
2023-02-02T14:00:47.912Z,72.74
2023-02-02T14:03:32.309Z,71.68
2023-02-02T14:06:11.619Z,71.35
2023-02-02T14:08:47.815Z,72.73
2023-02-02T14:11:26.078Z,73.56
2023-02-02T14:14:17.297Z,74.00
2023-02-02T14:16:56.795Z,74.79
2023-02-02T14:19:51.057Z,74.07
2023-02-02T14:22:37.457Z,73.92
2023-02-02T14:25:55.422Z,72.25
2023-02-02T14:28:44.629Z,72.32
2023-02-02T14:31:44.259Z,70.96
2023-02-02T14:34:33.839Z,72.00
2023-02-02T14:37:44.103Z,72.85
2023-02-02T14:40:31.309Z,72.57
2023-02-02T14:43:30.021Z,73.17
2023-02-02T14:46:32.952Z,73.03
2023-02-02T14:49:15.945Z,73.15
2023-02-02T14:51:55.265Z,73.72
2023-02-02T14:54:31.792Z,74.14
2023-02-02T14:57:04.548Z,73.74
2023-02-02T14:59:37.911Z,74.20
2023-02-02T15:02:23.111Z,74.96
2023-02-02T15:04:52.299Z,75.58
2023-02-02T15:07:55.655Z,76.51
2023-02-02T15:10:57.798Z,76.81
2023-02-02T15:13:30.049Z,78.21
2023-02-02T15:16:14.201Z,79.87
2023-02-02T15:18:49.244Z,80.55
2023-02-02T15:21:23.817Z,80.93
2023-02-02T15:23:53.212Z,80.43
2023-02-02T15:26:27.072Z,80.77
2023-02-02T15:29:00.721Z,81.45
2023-02-02T15:31:35.054Z,80.80
2023-02-02T15:34:16.191Z,80.66
2023-02-02T15:36:47.861Z,81.10
2023-02-02T15:39:28.260Z,81.18
2023-02-02T15:42:17.262Z,80.83
2023-02-02T15:44:46.912Z,80.65
2023-02-02T15:47:19.227Z,80.85
2023-02-02T15:49:51.168Z,80.40
2023-02-02T15:52:26.396Z,79.90
2023-02-02T15:54:57.366Z,80.50
2023-02-02T15:57:32.471Z,81.67
2023-02-02T16:00:22.862Z,82.02
2023-02-02T16:02:54.522Z,80.88
2023-02-02T16:05:46.303Z,79.87
2023-02-02T16:08:20.043Z,81.27
2023-02-02T16:10:50.171Z,81.95
2023-02-02T16:13:27.613Z,82.45
2023-02-02T16:15:59.197Z,81.91
2023-02-02T16:18:29.225Z,82.26
2023-02-02T16:21:03.124Z,82.42
2023-02-02T16:23:36.261Z,82.90
2023-02-02T16:26:07.992Z,81.60
2023-02-02T16:28:37.603Z,81.34
2023-02-02T16:31:07.392Z,80.65
2023-02-02T16:33:39.138Z,80.04
2023-02-02T16:36:25.570Z,79.80
2023-02-02T16:38:57.744Z,80.56
2023-02-02T16:41:30.099Z,81.17
2023-02-02T16:44:32.891Z,81.67
2023-02-02T16:47:02.554Z,81.40
2023-02-02T16:49:32.571Z,81.86
2023-02-02T16:52:18.123Z,81.44
2023-02-02T16:54:54.180Z,81.14
2023-02-02T16:57:27.252Z,81.51
2023-02-02T16:59:58.608Z,81.94
2023-02-02T17:02:32.805Z,81.56
2023-02-02T17:05:06.913Z,81.05
2023-02-02T17:07:39.399Z,80.55
2023-02-02T17:10:16.256Z,79.43
2023-02-02T17:12:46.726Z,79.01
2023-02-02T17:15:37.530Z,79.60
2023-02-02T17:18:07.359Z,78.90
2023-02-02T17:20:36.717Z,78.47
2023-02-02T17:23:10.654Z,77.92
2023-02-02T17:25:43.281Z,78.20
2023-02-02T17:28:14.366Z,78.83
2023-02-02T17:30:44.760Z,78.98
2023-02-02T17:33:16.275Z,78.53
2023-02-02T17:35:54.988Z,77.92
2023-02-02T17:38:28.477Z,78.82
2023-02-02T17:41:01.491Z,78.69
2023-02-02T17:43:31.968Z,78.94
2023-02-02T17:46:01.471Z,78.03
2023-02-02T17:48:31.142Z,78.78
2023-02-02T17:51:03.204Z,78.81
2023-02-02T17:53:34.620Z,79.07
2023-02-02T17:56:03.976Z,78.75
2023-02-02T17:58:33.817Z,78.11
2023-02-02T18:01:03.288Z,78.65
2023-02-02T18:03:36.099Z,79.38
2023-02-02T18:06:05.735Z,79.29
2023-02-02T18:08:36.750Z,79.09
2023-02-02T18:11:06.290Z,78.45
2023-02-02T18:13:35.800Z,78.01
2023-02-02T18:16:08.081Z,77.64
2023-02-02T18:18:37.866Z,77.26
2023-02-02T18:21:10.703Z,77.13
2023-02-02T18:23:42.304Z,76.33
2023-02-02T18:26:13.697Z,75.85
2023-02-02T18:28:43.311Z,75.97
2023-02-02T18:31:14.808Z,74.63
2023-02-02T18:33:44.906Z,74.33
2023-02-02T18:36:17.853Z,74.02
2023-02-02T18:38:50.928Z,73.92
2023-02-02T18:41:21.522Z,73.68
2023-02-02T18:43:54.915Z,73.29
2023-02-02T18:46:24.445Z,73.08
2023-02-02T18:48:53.921Z,72.85
2023-02-02T18:51:23.181Z,72.52
2023-02-02T18:54:00.502Z,72.09
2023-02-02T18:56:31.011Z,72.13
2023-02-02T18:59:00.958Z,72.14
2023-02-02T19:01:30.769Z,71.03
2023-02-02T19:04:00.958Z,70.66
2023-02-02T19:06:47.889Z,70.61
2023-02-02T19:09:18.899Z,70.22
2023-02-02T19:11:49.602Z,69.63
2023-02-02T19:14:21.477Z,70.03
2023-02-02T19:16:52.730Z,69.15
2023-02-02T19:19:25.667Z,68.91
2023-02-02T19:21:56.869Z,68.39
2023-02-02T19:24:29.802Z,66.57
2023-02-02T19:26:59.221Z,67.23
2023-02-02T19:29:37.105Z,67.31
2023-02-02T19:32:14.899Z,67.23
2023-02-02T19:34:44.338Z,67.58
2023-02-02T19:37:24.860Z,68.04
2023-02-02T19:40:01.220Z,68.17
2023-02-02T19:42:30.954Z,68.19
2023-02-02T19:45:00.603Z,68.76
2023-02-02T19:47:33.281Z,68.90
2023-02-02T19:50:16.887Z,68.86
2023-02-02T19:52:46.919Z,69.15
2023-02-02T19:55:29.621Z,68.70
2023-02-02T19:58:03.897Z,68.64
2023-02-02T20:00:41.110Z,68.85
2023-02-02T20:03:17.137Z,69.58
2023-02-02T20:05:48.275Z,69.67
2023-02-02T20:08:25.434Z,70.12
2023-02-02T20:11:00.756Z,70.98
2023-02-02T20:13:41.149Z,70.25
2023-02-02T20:16:16.755Z,70.67
2023-02-02T20:18:50.853Z,70.60
2023-02-02T20:21:26.664Z,70.66
2023-02-02T20:23:55.944Z,70.42
2023-02-02T20:26:30.457Z,71.29
2023-02-02T20:29:01.562Z,71.89
2023-02-02T20:31:37.778Z,70.65
2023-02-02T20:34:23.828Z,70.81
2023-02-02T20:36:54.228Z,70.73
2023-02-02T20:39:30.717Z,70.21
2023-02-02T20:42:01.658Z,70.19
2023-02-02T20:44:33.075Z,70.09
2023-02-02T20:47:02.962Z,69.64
2023-02-02T20:49:33.234Z,69.34
2023-02-02T20:52:05.285Z,69.18
2023-02-02T20:54:34.918Z,68.68
2023-02-02T20:57:06.828Z,68.66
2023-02-02T20:59:36.457Z,69.35
2023-02-02T21:02:06.432Z,69.91
2023-02-02T21:04:35.719Z,69.67
2023-02-02T21:07:05.517Z,69.49
2023-02-02T21:09:34.815Z,69.50
2023-02-02T21:12:05.961Z,69.55
2023-02-02T21:14:35.105Z,69.12
2023-02-02T21:17:14.366Z,70.38
2023-02-02T21:19:44.902Z,69.10
2023-02-02T21:22:15.003Z,69.42
2023-02-02T21:24:44.136Z,68.86
2023-02-02T21:27:15.038Z,69.06
2023-02-02T21:29:44.261Z,69.43
2023-02-02T21:32:13.894Z,68.85
2023-02-02T21:34:43.213Z,69.16
2023-02-02T21:37:15.150Z,69.12
2023-02-02T21:39:48.637Z,69.31
2023-02-02T21:42:21.803Z,69.32
2023-02-02T21:44:56.409Z,69.36
2023-02-02T21:47:31.220Z,68.73
2023-02-02T21:50:08.171Z,69.45
2023-02-02T21:52:37.888Z,69.85
2023-02-02T21:55:32.302Z,69.53
2023-02-02T21:58:13.174Z,69.10
2023-02-02T22:00:42.540Z,69.23
2023-02-02T22:03:35.732Z,69.17
2023-02-02T22:06:26.635Z,69.47
2023-02-02T22:09:03.165Z,69.62
2023-02-02T22:11:44.459Z,69.45
2023-02-02T22:14:21.006Z,70.08
2023-02-02T22:16:52.455Z,69.97
2023-02-02T22:19:34.441Z,70.51
2023-02-02T22:22:18.732Z,70.65
2023-02-02T22:24:53.625Z,70.87
2023-02-02T22:27:25.346Z,71.55
2023-02-02T22:29:59.781Z,71.80
2023-02-02T22:32:28.873Z,71.34
2023-02-02T22:34:58.302Z,71.76
2023-02-02T22:37:27.465Z,72.58
2023-02-02T22:39:58.190Z,73.33
2023-02-02T22:42:28.208Z,73.74
2023-02-02T22:44:59.182Z,73.78
2023-02-02T22:47:28.345Z,74.00
2023-02-02T22:49:57.837Z,75.33
2023-02-02T22:52:27.056Z,74.40
2023-02-02T22:54:56.430Z,75.33
2023-02-02T22:57:25.605Z,75.72
2023-02-02T22:59:54.993Z,76.45
2023-02-02T23:02:25.588Z,75.83
2023-02-02T23:04:55.259Z,75.89
2023-02-02T23:07:24.436Z,75.79
2023-02-02T23:09:54.129Z,75.68
2023-02-02T23:12:23.221Z,75.77
2023-02-02T23:14:52.687Z,76.15
2023-02-02T23:17:21.887Z,75.92
2023-02-02T23:19:52.791Z,76.13
2023-02-02T23:22:21.981Z,76.25
2023-02-02T23:24:51.408Z,75.94
2023-02-02T23:27:20.509Z,76.43
2023-02-02T23:29:50.067Z,76.36
2023-02-02T23:32:19.310Z,75.77
2023-02-02T23:34:48.649Z,75.88
2023-02-02T23:37:19.232Z,76.24
2023-02-02T23:39:48.656Z,77.36
2023-02-02T23:42:17.778Z,76.21
2023-02-02T23:44:47.226Z,76.27
2023-02-02T23:47:16.493Z,76.25
2023-02-02T23:49:46.589Z,76.37
2023-02-02T23:52:15.989Z,76.22
2023-02-02T23:54:46.894Z,76.53
2023-02-02T23:57:16.090Z,76.70
2023-02-02T23:59:45.487Z,77.52
